createdAt,value
2023-04-12T00:00:26.778Z,99250.35
2023-04-12T00:05:57.733Z,99249.11
2023-04-12T00:11:03.504Z,99244.98
2023-04-12T00:16:07.801Z,99238.27
2023-04-12T00:21:11.767Z,99237.87
2023-04-12T00:26:16.308Z,99231.52
2023-04-12T00:31:19.815Z,99241.66
2023-04-12T00:36:23.436Z,99241.48
2023-04-12T00:41:27.572Z,99240.31
2023-04-12T00:46:32.674Z,99238.52
2023-04-12T00:51:38.192Z,99238.94
2023-04-12T00:56:41.938Z,99238.92
2023-04-12T01:01:45.731Z,99244.39
2023-04-12T01:07:08.182Z,99242.84
2023-04-12T01:12:30.125Z,99251.42
2023-04-12T01:17:39.522Z,99259.98
2023-04-12T01:23:07.362Z,99257.89
2023-04-12T01:28:15.186Z,99260.27
2023-04-12T01:33:21.306Z,99267.33
2023-04-12T01:38:25.181Z,99258.40
2023-04-12T01:43:28.597Z,99254.70
2023-04-12T01:48:32.113Z,99256.84
2023-04-12T01:53:38.189Z,99256.09
2023-04-12T01:58:44.263Z,99244.81
2023-04-12T02:03:52.182Z,99244.46
2023-04-12T02:09:03.376Z,99240.39
2023-04-12T02:14:06.793Z,99233.83
2023-04-12T02:19:10.871Z,99235.86
2023-04-12T02:24:15.149Z,99232.08
2023-04-12T02:29:18.363Z,99230.29
2023-04-12T02:34:22.900Z,99236.00
2023-04-12T02:39:26.543Z,99238.86
2023-04-12T02:44:31.391Z,99237.42
2023-04-12T02:49:34.675Z,99236.90
2023-04-12T02:54:39.622Z,99247.93
2023-04-12T02:59:43.344Z,99252.10
2023-04-12T03:04:47.412Z,99253.08
2023-04-12T03:09:51.875Z,99253.71
2023-04-12T03:14:55.732Z,99261.77
2023-04-12T03:20:09.935Z,99254.86
2023-04-12T03:25:13.410Z,99256.76
2023-04-12T03:30:17.037Z,99260.34
2023-04-12T03:35:20.555Z,99250.84
2023-04-12T03:40:23.955Z,99258.51
2023-04-12T03:45:27.996Z,99257.27
2023-04-12T03:50:32.220Z,99240.86
2023-04-12T03:55:37.780Z,99235.89
2023-04-12T04:00:41.090Z,99247.59
2023-04-12T04:05:44.708Z,99253.23
2023-04-12T04:10:48.330Z,99253.27
2023-04-12T04:15:57.189Z,99253.58
2023-04-12T04:21:00.791Z,99252.33
2023-04-12T04:26:06.473Z,99250.10
2023-04-12T04:31:10.907Z,99251.84
2023-04-12T04:36:16.196Z,99248.63
2023-04-12T04:41:23.043Z,99251.86
2023-04-12T04:46:30.655Z,99253.86
2023-04-12T04:51:34.185Z,99258.29
2023-04-12T04:56:37.585Z,99259.27
2023-04-12T05:01:41.621Z,99263.45
2023-04-12T05:06:46.674Z,99270.33
2023-04-12T05:11:50.192Z,99286.91
2023-04-12T05:16:54.443Z,99282.14
2023-04-12T05:21:58.539Z,99280.92
2023-04-12T05:27:02.262Z,99279.89
2023-04-12T05:32:06.235Z,99275.45
2023-04-12T05:37:09.566Z,99283.48
2023-04-12T05:42:12.955Z,99287.66
2023-04-12T05:47:16.632Z,99287.23
2023-04-12T05:52:20.056Z,99293.36
2023-04-12T05:57:23.553Z,99291.25
2023-04-12T06:02:27.756Z,99290.11
2023-04-12T06:07:31.310Z,99291.10
2023-04-12T06:12:34.828Z,99291.82
2023-04-12T06:17:38.692Z,99297.25
2023-04-12T06:22:42.273Z,99294.27
2023-04-12T06:27:45.608Z,99301.92
2023-04-12T06:32:49.102Z,99298.11
2023-04-12T06:37:52.602Z,99293.59
2023-04-12T06:42:56.784Z,99289.15
2023-04-12T06:48:00.143Z,99288.13
2023-04-12T06:53:03.790Z,99288.95
2023-04-12T06:58:07.688Z,99285.77
2023-04-12T07:03:11.192Z,99281.77
2023-04-12T07:08:14.824Z,99275.77
2023-04-12T07:13:18.341Z,99277.44
2023-04-12T07:18:22.080Z,99282.20
2023-04-12T07:23:28.340Z,99288.54
2023-04-12T07:28:31.808Z,99285.46
2023-04-12T07:33:36.896Z,99289.54
2023-04-12T07:38:40.834Z,99288.06
2023-04-12T07:43:44.253Z,99284.35
2023-04-12T07:48:47.765Z,99281.27
2023-04-12T07:53:52.114Z,99286.81
2023-04-12T07:58:55.655Z,99281.75
2023-04-12T08:03:59.455Z,99277.71
2023-04-12T08:09:03.053Z,99277.50
2023-04-12T08:14:06.464Z,99277.58
2023-04-12T08:19:09.979Z,99273.47
2023-04-12T08:24:13.521Z,99273.30
2023-04-12T08:29:17.219Z,99271.80
2023-04-12T08:34:22.691Z,99267.70
2023-04-12T08:39:26.294Z,99261.63
2023-04-12T08:44:38.324Z,99255.84
2023-04-12T08:49:41.719Z,99259.30
2023-04-12T08:54:45.316Z,99258.83
2023-04-12T08:59:53.108Z,99259.58
2023-04-12T09:04:56.913Z,99261.01
2023-04-12T09:10:00.504Z,99253.88
2023-04-12T09:15:10.458Z,99254.73
2023-04-12T09:20:16.652Z,99257.19
2023-04-12T09:25:36.799Z,99253.02
2023-04-12T09:30:43.410Z,99246.38
2023-04-12T09:35:47.773Z,99243.21
2023-04-12T09:40:51.303Z,99243.23
2023-04-12T09:46:15.014Z,99240.18
2023-04-12T09:51:30.107Z,99236.20
2023-04-12T09:56:36.081Z,99229.84
2023-04-12T10:01:41.400Z,99223.44
2023-04-12T10:06:46.190Z,99221.29
2023-04-12T10:11:52.209Z,99226.17
2023-04-12T10:17:00.232Z,99222.69
2023-04-12T10:22:03.588Z,99208.48
2023-04-12T10:27:07.292Z,99205.60
2023-04-12T10:32:25.895Z,99206.64
2023-04-12T10:38:08.415Z,99206.13
2023-04-12T10:43:29.214Z,99206.63
2023-04-12T10:48:39.680Z,99205.14
2023-04-12T10:53:43.607Z,99209.58
2023-04-12T10:58:57.132Z,99203.44
2023-04-12T11:04:22.023Z,99198.39
2023-04-12T11:09:35.303Z,99202.92
2023-04-12T11:14:50.302Z,99194.20
2023-04-12T11:20:00.015Z,99192.72
2023-04-12T11:25:03.673Z,99192.44
2023-04-12T11:30:07.606Z,99187.55
2023-04-12T11:35:11.009Z,99181.52
2023-04-12T11:40:15.246Z,99183.45
2023-04-12T11:45:21.940Z,99186.13
2023-04-12T11:50:31.387Z,99180.02
2023-04-12T11:55:34.956Z,99172.59
2023-04-12T12:00:38.726Z,99165.44
2023-04-12T12:05:43.003Z,99172.36
2023-04-12T12:11:06.264Z,99164.48
2023-04-12T12:16:13.454Z,99156.83
2023-04-12T12:21:16.958Z,99151.31
2023-04-12T12:26:31.118Z,99146.70
2023-04-12T12:31:34.558Z,99137.61
2023-04-12T12:36:39.168Z,99132.59
2023-04-12T12:41:42.746Z,99130.23
2023-04-12T12:46:53.438Z,99126.61
2023-04-12T12:51:59.048Z,99126.34
2023-04-12T12:57:03.846Z,99120.69
2023-04-12T13:02:08.186Z,99113.02
2023-04-12T13:07:12.157Z,99102.25
2023-04-12T13:12:16.581Z,99100.21
2023-04-12T13:17:21.264Z,99098.09
2023-04-12T13:22:25.871Z,99100.77
2023-04-12T13:27:29.363Z,99104.35
2023-04-12T13:32:33.051Z,99101.45
2023-04-12T13:37:36.716Z,99099.02
2023-04-12T13:42:40.352Z,99095.92
2023-04-12T13:47:43.871Z,99096.14
2023-04-12T13:52:47.423Z,99093.21
2023-04-12T13:57:51.009Z,99091.06
2023-04-12T14:02:54.540Z,99092.08
2023-04-12T14:08:01.855Z,99090.31
2023-04-12T14:13:05.533Z,99090.13
2023-04-12T14:18:08.949Z,99089.66
2023-04-12T14:23:13.034Z,99085.22
2023-04-12T14:28:22.127Z,99102.42
2023-04-12T14:33:25.736Z,99115.55
2023-04-12T14:38:29.150Z,99121.89
2023-04-12T14:43:32.979Z,99128.39
2023-04-12T14:48:36.490Z,99128.67
2023-04-12T14:53:41.049Z,99137.41
2023-04-12T14:58:44.509Z,99138.06
2023-04-12T15:03:48.148Z,99146.58
2023-04-12T15:08:55.318Z,99157.31
2023-04-12T15:13:59.466Z,99157.70
2023-04-12T15:19:10.002Z,99150.42
2023-04-12T15:24:27.415Z,99155.97
2023-04-12T15:29:31.340Z,99156.33
2023-04-12T15:34:35.582Z,99148.32
2023-04-12T15:39:40.210Z,99142.30
2023-04-12T15:44:45.573Z,99143.02
2023-04-12T15:49:48.891Z,99139.67
2023-04-12T15:54:52.392Z,99137.13
2023-04-12T15:59:58.057Z,99136.93
2023-04-12T16:05:01.620Z,99133.55
2023-04-12T16:10:06.535Z,99131.52
2023-04-12T16:15:10.554Z,99124.23
2023-04-12T16:20:33.558Z,99122.58
2023-04-12T16:25:37.140Z,99121.82
2023-04-12T16:30:41.094Z,99116.61
2023-04-12T16:35:44.588Z,99119.63
2023-04-12T16:40:48.311Z,99117.98
2023-04-12T16:45:51.930Z,99123.94
2023-04-12T16:50:55.542Z,99123.94
2023-04-12T16:56:04.901Z,99120.06
2023-04-12T17:01:08.522Z,99117.90
2023-04-12T17:06:12.260Z,99114.67
2023-04-12T17:11:15.855Z,99115.27
2023-04-12T17:16:36.390Z,99113.67
2023-04-12T17:21:42.857Z,99112.59
2023-04-12T17:26:46.794Z,99114.83
2023-04-12T17:31:54.272Z,99108.42
2023-04-12T17:36:58.624Z,99108.70
2023-04-12T17:42:02.241Z,99109.10
2023-04-12T17:47:05.747Z,99109.25
2023-04-12T17:52:11.242Z,99107.43
2023-04-12T17:57:14.624Z,99117.58
2023-04-12T18:02:18.083Z,99117.39
2023-04-12T18:07:21.760Z,99124.31
2023-04-12T18:12:25.280Z,99120.00
2023-04-12T18:17:28.935Z,99120.46
2023-04-12T18:22:32.719Z,99121.08
2023-04-12T18:27:36.374Z,99123.83
2023-04-12T18:32:39.888Z,99128.43
2023-04-12T18:37:44.287Z,99123.77
2023-04-12T18:42:47.805Z,99112.58
2023-04-12T18:47:53.218Z,99118.83
2023-04-12T18:52:56.685Z,99120.67
2023-04-12T18:58:00.259Z,99118.08
2023-04-12T19:03:04.199Z,99114.79
2023-04-12T19:08:08.154Z,99112.02
2023-04-12T19:13:11.796Z,99113.33
2023-04-12T19:18:15.288Z,99116.39
2023-04-12T19:23:18.895Z,99116.08
2023-04-12T19:28:30.814Z,99115.80
2023-04-12T19:33:34.643Z,99110.77
2023-04-12T19:38:41.676Z,99106.89
2023-04-12T19:43:45.147Z,99099.48
2023-04-12T19:48:49.060Z,99093.80
2023-04-12T19:53:54.929Z,99088.11
2023-04-12T19:58:58.861Z,99085.79
2023-04-12T20:04:05.839Z,99092.04
2023-04-12T20:09:11.649Z,99089.40
2023-04-12T20:14:17.144Z,99088.05
2023-04-12T20:19:21.110Z,99084.88
2023-04-12T20:24:25.855Z,99085.63
2023-04-12T20:29:34.847Z,99083.36
2023-04-12T20:34:38.459Z,99083.21
2023-04-12T20:39:42.237Z,99084.49
2023-04-12T20:44:45.856Z,99084.27
2023-04-12T20:49:49.373Z,99088.21
2023-04-12T20:54:53.808Z,99083.70
2023-04-12T20:59:57.325Z,99085.39
2023-04-12T21:05:00.840Z,99085.00
2023-04-12T21:10:04.638Z,99086.36
2023-04-12T21:15:09.587Z,99085.17
2023-04-12T21:20:17.018Z,99077.52
2023-04-12T21:25:21.565Z,99074.84
2023-04-12T21:30:25.079Z,99071.71
2023-04-12T21:35:30.482Z,99066.09
2023-04-12T21:40:33.851Z,99064.93
2023-04-12T21:45:38.978Z,99068.78
2023-04-12T21:50:42.417Z,99069.64
2023-04-12T21:55:46.046Z,99073.92
2023-04-12T22:00:49.375Z,99077.92
2023-04-12T22:06:03.440Z,99077.33
2023-04-12T22:11:09.797Z,99072.08
2023-04-12T22:16:14.162Z,99067.46
2023-04-12T22:21:18.058Z,99070.03
2023-04-12T22:26:21.569Z,99064.40
2023-04-12T22:31:26.483Z,99061.10
2023-04-12T22:36:30.006Z,99055.09
2023-04-12T22:41:33.956Z,99052.37
2023-04-12T22:46:39.171Z,99051.42
2023-04-12T22:51:43.342Z,99051.02
2023-04-12T22:56:47.287Z,99047.47
2023-04-12T23:01:50.870Z,99037.98
2023-04-12T23:06:57.680Z,99028.66
2023-04-12T23:12:02.058Z,99027.05
2023-04-12T23:17:05.940Z,99021.61
2023-04-12T23:22:09.368Z,99014.08
2023-04-12T23:27:13.377Z,99005.45
2023-04-12T23:32:16.789Z,98996.65
2023-04-12T23:37:20.305Z,98992.17
2023-04-12T23:42:23.719Z,98978.97
2023-04-12T23:47:27.439Z,98967.88
2023-04-12T23:52:32.695Z,98965.10
2023-04-12T23:57:36.109Z,98964.25
